Etusivu
METAR-TAF:

METAR-TAF

Lentoasemat :

Kramfors, Ruotsi

Leveyspiiri: 63-03N, Pituuspiiri: 017-46E, korkeus merenpinnasta: 10 m

Tämänhetkinen sää

Tämä raportti tehtiin 34 minuuttia sitten, kello 14.20 UTC
Tuuli 2 kn eri suunnista
Lämpötila -13°C
Kosteus 92%
Ilmanpaine 987 hPa
Näkyvyys 10 km tai enemmän

METAR: ESNK 131420Z AUTO VRB02KT 9999 NCD M13/M14 Q0987

Aika: 15:54 (14:54 UTC)

Sääennuste

Tämä raportti tehtiin 24 minuuttia sitten, kello 14.30 UTC
Ennuste voimassa 13. päivästä klo 15 UTC - 13. päivään klo 21 UTC
Tuuli 2 kn eri suunnista
Näkyvyys 10 km tai enemmän
ei pilviä alle 1500 m:ssä eikä cumulonimbus-pilviä
Ajoittain
13. päivästä klo 20 UTC - 13. päivään klo 21 UTC
Näkyvyys: 2000 m
1400 ft:n korkeudessa
lumisadetta

TAF: ESNK 131430Z 1315/1321 VRB02KT CAVOK TEMPO 1320/1321 2000 SN VV014

Säähavainnot ja -ennusteet yli 4000 lentoasemalta (METAR- ja TAF-raportit).

Käytössä olevat sääasemat on merkitty karttaan keltaisilla ja punaisilla pisteillä.

Aseta hiiri pisteen päälle nähdäksesi sääaseman nimen.

Klikkaa sitten nähdäksesi säähavainnot ja -ennusteet.

Kartan vaihtaminen: klikkaa mustalla rastilla varustettuja vihreitä pisteitä, niin voit zoomata sisään; viivalla varustettua vihreää pistettä, niin voit zoomata ulos tai vihreitä nuolia, niin pääset viereisille kartoille.


METAR-TAF: